Time;durP1;ratioP1;P1;durP2;ratioP2;P2;SDS_P1;SDS_P2;PMS_P1;PMS_P2;Temp;Humidity;BMP_temperature;BMP_pressure;BME280_temperature;BME280_humidity;BME280_pressure;Samples;Min_cycle;Max_cycle;Signal;HPM_P1;HPM_P2
2024/02/10 00:02:50;;;;;;;27.95;19.10;;;;;;;4.08;100.00;98649.59;10107485;28;20159;-73
2024/02/10 00:07:51;;;;;;;27.13;20.13;;;;;;;4.07;100.00;98653.41;10099222;28;20098;-74
2024/02/10 00:12:50;;;;;;;25.95;19.33;;;;;;;4.05;100.00;98658.34;10102734;28;20139;-75
2024/02/10 00:17:48;;;;;;;29.92;21.48;;;;;;;4.07;100.00;98648.00;10111553;28;20061;-75
2024/02/10 00:22:46;;;;;;;26.45;20.05;;;;;;;4.02;100.00;98648.19;10104192;28;20576;-75
2024/02/10 00:27:46;;;;;;;27.70;21.73;;;;;;;4.05;100.00;98659.13;10108805;28;20043;-74
2024/02/10 00:32:43;;;;;;;26.60;19.10;;;;;;;4.06;100.00;98662.63;10109694;28;20058;-73
2024/02/10 00:37:39;;;;;;;29.45;21.60;;;;;;;4.05;100.00;98652.94;10113050;28;20127;-73
2024/02/10 00:42:36;;;;;;;28.90;20.75;;;;;;;4.04;100.00;98651.34;10102888;28;20050;-74
2024/02/10 00:47:35;;;;;;;27.23;20.75;;;;;;;4.09;100.00;98651.19;10103023;28;20034;-75
2024/02/10 00:52:31;;;;;;;27.20;20.30;;;;;;;4.12;100.00;98639.72;10112205;28;20376;-74
2024/02/10 00:57:28;;;;;;;27.40;20.52;;;;;;;4.13;100.00;98652.09;10104914;28;21255;-72
2024/02/10 01:02:25;;;;;;;28.25;20.63;;;;;;;4.18;100.00;98649.25;10104782;28;20559;-74
2024/02/10 01:07:23;;;;;;;23.45;19.35;;;;;;;4.19;100.00;98673.22;10109860;28;20097;-74
2024/02/10 01:12:20;;;;;;;26.42;21.50;;;;;;;4.19;100.00;98672.44;10107761;28;20141;-73
2024/02/10 01:17:16;;;;;;;29.00;20.13;;;;;;;4.19;100.00;98656.22;10096737;28;20050;-75
2024/02/10 01:22:17;;;;;;;30.48;20.67;;;;;;;4.22;100.00;98671.78;10102266;28;20494;-73
2024/02/10 01:27:18;;;;;;;26.75;20.13;;;;;;;4.21;100.00;98679.13;10112772;28;20047;-73
2024/02/10 01:32:15;;;;;;;28.38;21.20;;;;;;;4.15;100.00;98674.22;10115363;28;20536;-74
2024/02/10 01:37:12;;;;;;;36.15;20.55;;;;;;;4.16;100.00;98662.28;10092978;28;20098;-74
2024/02/10 01:42:09;;;;;;;26.50;19.35;;;;;;;4.15;100.00;98671.50;10112445;28;20109;-75
2024/02/10 01:47:05;;;;;;;30.48;21.35;;;;;;;4.20;100.00;98665.91;10106165;28;20038;-74
2024/02/10 01:52:02;;;;;;;25.95;19.90;;;;;;;4.19;100.00;98669.75;10101092;28;20066;-73
2024/02/10 01:57:00;;;;;;;28.13;19.80;;;;;;;4.22;100.00;98671.78;10115385;28;20047;-74
2024/02/10 02:01:57;;;;;;;27.70;20.17;;;;;;;4.29;100.00;98677.47;10084581;28;20051;-75
2024/02/10 02:06:54;;;;;;;26.35;20.45;;;;;;;4.33;100.00;98678.41;10105613;28;20042;-74
2024/02/10 02:11:51;;;;;;;28.30;19.48;;;;;;;4.34;100.00;98680.03;10112966;28;20039;-73
2024/02/10 02:16:48;;;;;;;30.00;20.02;;;;;;;4.38;100.00;98680.16;10102129;28;20039;-72
2024/02/10 02:21:45;;;;;;;27.55;19.45;;;;;;;4.36;100.00;98683.19;10098840;28;20057;-74
2024/02/10 02:26:41;;;;;;;28.38;20.38;;;;;;;4.43;100.00;98674.53;10105785;28;20042;-74
2024/02/10 02:31:38;;;;;;;31.55;21.60;;;;;;;4.36;100.00;98671.56;10106869;28;20057;-75
2024/02/10 02:36:35;;;;;;;31.15;21.65;;;;;;;4.35;100.00;98673.47;10095816;28;20125;-73
2024/02/10 02:41:32;;;;;;;31.77;21.27;;;;;;;4.39;100.00;98674.41;10098752;28;20046;-75
2024/02/10 02:46:28;;;;;;;30.35;21.55;;;;;;;4.32;100.00;98674.16;10098737;28;20054;-75
2024/02/10 02:51:25;;;;;;;31.92;21.85;;;;;;;4.34;100.00;98680.03;10102830;28;20058;-72
2024/02/10 02:56:21;;;;;;;30.85;22.15;;;;;;;4.32;100.00;98666.03;10102477;28;20396;-73
2024/02/10 03:01:18;;;;;;;32.17;21.63;;;;;;;4.39;100.00;98677.13;10091376;28;20516;-74
2024/02/10 03:06:16;;;;;;;30.85;22.02;;;;;;;4.37;100.00;98673.94;10115545;28;20134;-76
2024/02/10 03:11:17;;;;;;;33.80;22.42;;;;;;;4.29;100.00;98671.28;10111056;28;20098;-74
2024/02/10 03:16:15;;;;;;;33.08;23.13;;;;;;;4.29;100.00;98658.53;10107167;28;20051;-73
2024/02/10 03:21:17;;;;;;;35.22;24.27;;;;;;;4.28;100.00;98659.69;10105892;28;20075;-73
2024/02/10 03:26:13;;;;;;;40.63;25.00;;;;;;;4.12;100.00;98672.16;10108039;28;20110;-73
2024/02/10 03:31:10;;;;;;;35.88;22.30;;;;;;;4.15;100.00;98675.00;10112013;28;20078;-73
2024/02/10 03:36:06;;;;;;;35.95;23.02;;;;;;;4.15;100.00;98671.50;10107782;28;20058;-73
2024/02/10 03:41:03;;;;;;;35.78;24.10;;;;;;;4.24;100.00;98674.97;10106399;28;20045;-72
2024/02/10 03:45:59;;;;;;;37.38;23.15;;;;;;;4.24;100.00;98680.38;10112698;28;20047;-72
2024/02/10 03:50:56;;;;;;;41.00;23.80;;;;;;;4.21;100.00;98670.22;10111445;28;20043;-71
2024/02/10 03:55:56;;;;;;;38.22;23.13;;;;;;;4.30;100.00;98679.09;10108395;28;20500;-71
2024/02/10 04:00:53;;;;;;;36.72;23.50;;;;;;;4.36;100.00;98680.50;10104364;28;20043;-71
2024/02/10 04:05:50;;;;;;;41.45;24.25;;;;;;;4.34;100.00;98663.78;10117448;28;20043;-71
2024/02/10 04:10:47;;;;;;;43.30;24.60;;;;;;;4.36;100.00;98675.09;10108327;28;20119;-74
2024/02/10 04:15:43;;;;;;;45.30;26.25;;;;;;;4.24;100.00;98674.97;10100210;28;20068;-74
2024/02/10 04:20:44;;;;;;;49.10;27.83;;;;;;;4.30;100.00;98662.84;10100481;28;20127;-73
2024/02/10 04:25:41;;;;;;;42.50;26.50;;;;;;;4.29;100.00;98669.38;10093506;28;20418;-73
2024/02/10 04:30:40;;;;;;;50.17;26.15;;;;;;;4.28;100.00;98675.91;10109075;28;20085;-75
2024/02/10 04:35:36;;;;;;;40.25;25.70;;;;;;;4.26;100.00;98678.13;10110132;28;20043;-74
2024/02/10 04:40:32;;;;;;;42.90;25.27;;;;;;;4.21;100.00;98676.41;10102249;28;20051;-73
2024/02/10 04:45:34;;;;;;;44.28;24.63;;;;;;;4.23;100.00;98681.50;10097000;28;20062;-73
2024/02/10 04:50:31;;;;;;;45.37;26.20;;;;;;;4.30;100.00;98673.66;10112619;28;20503;-72
2024/02/10 04:55:27;;;;;;;45.20;26.98;;;;;;;4.30;100.00;98675.59;10101435;28;20051;-71
2024/02/10 05:00:24;;;;;;;62.20;27.88;;;;;;;4.30;100.00;98681.78;10102916;28;20149;-71
2024/02/10 05:05:21;;;;;;;46.63;25.63;;;;;;;4.39;100.00;98687.94;10100227;28;20844;-74
2024/02/10 05:10:18;;;;;;;41.60;25.85;;;;;;;4.36;100.00;98688.63;10095990;28;20039;-74
2024/02/10 05:15:21;;;;;;;43.15;25.52;;;;;;;4.40;100.00;98681.41;10102857;28;20519;-72
2024/02/10 05:20:22;;;;;;;46.28;25.90;;;;;;;4.46;100.00;98686.66;10105667;28;20400;-71
2024/02/10 05:25:21;;;;;;;46.53;26.25;;;;;;;4.46;100.00;98692.06;10103158;28;20051;-71
2024/02/10 05:30:21;;;;;;;47.92;25.10;;;;;;;4.49;100.00;98691.41;10112928;28;20050;-72
2024/02/10 05:35:19;;;;;;;44.22;24.60;;;;;;;4.48;100.00;98695.22;10104121;28;20042;-72
2024/02/10 05:40:17;;;;;;;41.55;25.33;;;;;;;4.52;100.00;98702.34;10097596;28;20059;-73
2024/02/10 05:45:17;;;;;;;43.50;25.52;;;;;;;4.57;100.00;98704.09;10105191;28;20058;-75
2024/02/10 05:50:18;;;;;;;45.25;26.85;;;;;;;4.59;100.00;98707.25;10105624;28;20051;-76
2024/02/10 05:55:20;;;;;;;42.58;26.50;;;;;;;4.59;100.00;98707.25;10098370;28;20050;-76
2024/02/10 06:00:18;;;;;;;39.38;25.38;;;;;;;4.64;100.00;98712.47;10100730;28;20502;-73
2024/02/10 06:05:15;;;;;;;48.53;26.50;;;;;;;4.56;100.00;98707.94;10101647;28;20053;-74
2024/02/10 06:10:13;;;;;;;48.85;27.33;;;;;;;4.63;100.00;98721.75;10101075;28;20273;-74
2024/02/10 06:15:10;;;;;;;46.28;27.38;;;;;;;4.59;100.00;98712.66;10108963;28;20047;-73
2024/02/10 06:20:17;;;;;;;42.00;27.90;;;;;;;4.62;100.00;98722.88;10096165;28;20521;-73
2024/02/10 06:25:27;;;;;;;41.40;26.65;;;;;;;4.63;100.00;98737.97;10105129;28;20139;-74
2024/02/10 06:30:32;;;;;;;39.95;25.98;;;;;;;4.58;100.00;98732.75;10095829;28;20443;-73
2024/02/10 06:35:29;;;;;;;39.90;24.88;;;;;;;4.66;100.00;98745.44;10110344;28;20098;-74
2024/02/10 06:40:26;;;;;;;44.20;26.40;;;;;;;4.68;100.00;98748.63;10115048;28;20042;-74
2024/02/10 06:45:24;;;;;;;38.03;23.63;;;;;;;4.68;100.00;98743.19;10107847;28;20499;-73
2024/02/10 06:50:24;;;;;;;45.03;25.92;;;;;;;4.71;100.00;98741.75;10108088;28;21070;-72
2024/02/10 06:55:26;;;;;;;43.50;26.85;;;;;;;4.71;100.00;98734.44;10109695;28;20118;-73
2024/02/10 07:00:23;;;;;;;43.22;27.65;;;;;;;4.75;100.00;98738.06;10105703;28;20521;-74
2024/02/10 07:05:22;;;;;;;42.83;26.42;;;;;;;4.78;100.00;98748.25;10103040;28;20043;-74
2024/02/10 07:10:21;;;;;;;39.05;25.60;;;;;;;4.84;100.00;98755.06;10115467;28;20118;-73
2024/02/10 07:15:20;;;;;;;43.92;26.20;;;;;;;4.78;100.00;98759.09;10107929;28;20471;-74
2024/02/10 07:20:18;;;;;;;45.80;24.85;;;;;;;4.82;100.00;98762.72;10113619;28;20516;-74
2024/02/10 07:25:16;;;;;;;40.22;24.35;;;;;;;4.79;100.00;98770.69;10103955;28;20517;-73
2024/02/10 07:30:13;;;;;;;39.80;23.85;;;;;;;4.91;100.00;98764.59;10104323;28;20130;-76
2024/02/10 07:35:10;;;;;;;40.58;25.02;;;;;;;5.00;100.00;98771.53;10108870;28;20126;-73
2024/02/10 07:40:07;;;;;;;44.90;26.20;;;;;;;5.02;100.00;98773.91;10101763;28;20154;-75
2024/02/10 07:45:04;;;;;;;37.95;24.08;;;;;;;5.10;100.00;98792.03;10099669;28;20087;-74
2024/02/10 07:50:03;;;;;;;44.38;24.20;;;;;;;5.10;100.00;98786.59;10107896;28;20061;-74
2024/02/10 07:55:00;;;;;;;39.35;24.60;;;;;;;5.12;100.00;98800.63;10101309;28;20619;-75
2024/02/10 07:59:56;;;;;;;38.80;24.42;;;;;;;5.33;100.00;98807.97;10102196;28;20047;-73
2024/02/10 08:04:56;;;;;;;43.33;23.48;;;;;;;5.23;100.00;98818.09;10096747;28;20043;-73
2024/02/10 08:09:53;;;;;;;37.30;22.92;;;;;;;5.37;100.00;98822.47;10106104;28;20613;-74
2024/02/10 08:14:51;;;;;;;43.28;23.70;;;;;;;5.32;100.00;98831.59;10103506;28;20134;-74
2024/02/10 08:19:51;;;;;;;35.78;23.58;;;;;;;5.46;100.00;98842.97;10108769;28;20123;-75
2024/02/10 08:24:48;;;;;;;33.95;22.42;;;;;;;5.51;100.00;98844.69;10106246;28;20515;-73
2024/02/10 08:29:47;;;;;;;36.25;23.38;;;;;;;5.57;100.00;98843.38;10106560;28;20047;-73
2024/02/10 08:34:44;;;;;;;36.75;24.10;;;;;;;5.55;100.00;98864.59;10105068;28;20050;-73
2024/02/10 08:39:45;;;;;;;38.05;24.13;;;;;;;5.60;100.00;98875.25;10098782;28;20398;-74
2024/02/10 08:44:45;;;;;;;40.42;25.60;;;;;;;5.65;100.00;98874.25;10106598;28;20038;-73
2024/02/10 08:49:44;;;;;;;43.30;23.83;;;;;;;5.69;100.00;98884.13;10097593;28;20049;-73
2024/02/10 08:54:41;;;;;;;40.80;25.73;;;;;;;5.80;100.00;98894.56;10107112;28;20043;-73
2024/02/10 08:59:41;;;;;;;49.92;25.90;;;;;;;5.72;100.00;98898.13;10100161;28;20051;-75
2024/02/10 09:04:38;;;;;;;45.72;24.27;;;;;;;5.81;100.00;98907.00;10107831;28;20047;-74
2024/02/10 09:09:36;;;;;;;42.65;27.13;;;;;;;5.88;100.00;98918.91;10090563;28;20142;-73
2024/02/10 09:14:34;;;;;;;55.92;26.70;;;;;;;5.76;100.00;98923.47;10091871;28;20047;-73
2024/02/10 09:19:35;;;;;;;45.10;25.27;;;;;;;5.85;100.00;98932.34;10107985;28;20054;-74
2024/02/10 09:24:31;;;;;;;43.28;24.67;;;;;;;5.91;100.00;98941.88;10097926;28;20062;-74
2024/02/10 09:29:31;;;;;;;41.10;25.42;;;;;;;6.04;100.00;98940.06;10097090;28;20497;-73
2024/02/10 09:34:28;;;;;;;48.60;26.48;;;;;;;-146.18;100.00;67994.34;10091501;28;20058;-73
2024/02/10 09:39:28;;;;;;;49.65;26.33;;;;;;;6.10;100.00;98963.13;10102803;28;20042;-73
2024/02/10 09:44:25;;;;;;;46.28;27.13;;;;;;;6.18;100.00;98964.22;10094114;28;20466;-73
2024/02/10 09:49:22;;;;;;;52.22;27.35;;;;;;;6.20;100.00;98961.97;10099215;28;20085;-75
2024/02/10 09:54:19;;;;;;;48.33;26.08;;;;;;;6.37;100.00;98950.97;10095816;28;20049;-71
2024/02/10 09:59:24;;;;;;;42.20;25.55;;;;;;;6.53;100.00;98962.00;10101227;28;20042;-72
2024/02/10 10:04:21;;;;;;;44.13;26.02;;;;;;;6.65;100.00;98967.47;10095653;28;20498;-75
2024/02/10 10:09:18;;;;;;;48.47;26.33;;;;;;;6.78;100.00;98975.66;10100372;28;20043;-73
2024/02/10 10:14:19;;;;;;;40.75;24.65;;;;;;;6.76;100.00;98967.84;10105144;28;20078;-72
2024/02/10 10:19:20;;;;;;;46.40;25.75;;;;;;;6.80;100.00;98973.41;10098950;28;20581;-72
2024/02/10 10:24:17;;;;;;;46.63;26.08;;;;;;;6.86;100.00;98981.00;10090720;28;20057;-73
2024/02/10 10:29:15;;;;;;;45.13;25.80;;;;;;;6.95;100.00;98976.28;10085031;28;20054;-74
2024/02/10 10:34:14;;;;;;;47.22;25.35;;;;;;;7.07;100.00;98974.72;10092888;28;20137;-75
2024/02/10 10:39:11;;;;;;;46.10;26.70;;;;;;;7.12;100.00;98997.03;10084247;28;20053;-74
2024/02/10 10:44:09;;;;;;;41.53;25.42;;;;;;;7.29;100.00;98998.78;10095189;28;20509;-76
2024/02/10 10:49:09;;;;;;;37.15;24.88;;;;;;;7.46;100.00;99000.50;10098889;28;20482;-75
2024/02/10 10:54:10;;;;;;;37.72;23.48;;;;;;;7.45;100.00;99006.25;10100237;28;20343;-74
2024/02/10 10:59:09;;;;;;;38.67;21.70;;;;;;;7.40;100.00;99003.75;10096100;28;20050;-75
2024/02/10 11:04:14;;;;;;;43.80;23.85;;;;;;;7.59;100.00;99004.03;10096647;28;20129;-75
2024/02/10 11:09:16;;;;;;;40.85;24.65;;;;;;;7.54;100.00;99015.94;10089613;28;20149;-75
2024/02/10 11:14:13;;;;;;;;;;;;;;;7.62;100.00;99030.53;10089771;28;20055;-76
2024/02/10 11:19:13;;;;;;;37.83;22.60;;;;;;;7.69;100.00;99038.94;10096827;28;19955;-80
2024/02/10 11:24:16;;;;;;;39.08;24.30;;;;;;;7.64;100.00;99038.38;10101154;28;20047;-75
2024/02/10 11:29:13;;;;;;;45.95;25.35;;;;;;;7.60;100.00;99035.53;10097164;28;20165;-75
2024/02/10 11:34:16;;;;;;;38.60;24.13;;;;;;;7.55;100.00;99031.09;10106476;28;20043;-74
2024/02/10 11:39:14;;;;;;;40.45;26.17;;;;;;;7.82;100.00;99038.94;10097469;28;20134;-74
2024/02/10 11:44:10;;;;;;;35.88;23.35;;;;;;;7.83;100.00;99032.38;10112230;28;20506;-72
2024/02/10 11:49:07;;;;;;;38.97;25.13;;;;;;;7.75;100.00;99029.41;10104715;28;20047;-72
2024/02/10 11:54:04;;;;;;;40.47;24.00;;;;;;;7.89;100.00;99022.81;10109115;28;20915;-73
2024/02/10 11:59:01;;;;;;;37.78;23.80;;;;;;;7.77;100.00;99024.44;10097152;28;20043;-75
2024/02/10 12:04:05;;;;;;;33.90;22.63;;;;;;;7.95;100.00;99032.34;10096551;28;20447;-74
2024/02/10 12:09:04;;;;;;;35.80;22.92;;;;;;;7.97;100.00;99024.66;10087135;28;20366;-75
2024/02/10 12:14:01;;;;;;;31.58;21.92;;;;;;;8.13;100.00;99028.25;10097899;28;20523;-74
2024/02/10 12:18:59;;;;;;;33.58;21.35;;;;;;;8.09;100.00;99030.06;10102339;28;20565;-74
2024/02/10 12:23:56;;;;;;;35.92;22.73;;;;;;;7.85;100.00;99043.72;10107323;28;20046;-73
2024/02/10 12:28:52;;;;;;;36.00;21.50;;;;;;;7.98;100.00;99037.09;10101594;28;20058;-74
2024/02/10 12:33:54;;;;;;;28.05;19.92;;;;;;;8.01;100.00;99037.22;10104435;28;20046;-72
2024/02/10 12:38:55;;;;;;;34.00;21.63;;;;;;;8.03;100.00;99039.63;10099299;28;20047;-73
2024/02/10 12:43:53;;;;;;;31.67;21.80;;;;;;;8.05;100.00;99042.75;10099061;28;21265;-73
2024/02/10 12:48:50;;;;;;;33.70;22.25;;;;;;;8.05;100.00;99037.31;10081102;28;20047;-73
2024/02/10 12:53:53;;;;;;;36.78;22.05;;;;;;;8.01;100.00;99036.44;10111366;28;20355;-72
2024/02/10 12:58:50;;;;;;;33.88;22.33;;;;;;;8.16;100.00;99033.00;10103068;28;20043;-74
2024/02/10 13:03:47;;;;;;;36.22;22.20;;;;;;;8.29;100.00;99035.72;10106156;28;20093;-72
2024/02/10 13:08:43;;;;;;;29.65;21.02;;;;;;;8.31;100.00;99033.44;10097375;28;20570;-74
2024/02/10 13:13:44;;;;;;;32.53;21.83;;;;;;;8.32;100.00;99029.59;10103477;28;20077;-74
2024/02/10 13:18:40;;;;;;;32.67;21.30;;;;;;;8.15;100.00;99036.09;10105844;28;20047;-73
2024/02/10 13:23:43;;;;;;;37.17;22.02;;;;;;;8.25;100.00;99034.81;10100235;28;20521;-72
2024/02/10 13:28:41;;;;;;;32.88;22.10;;;;;;;8.04;100.00;99024.84;10106500;28;20414;-73
2024/02/10 13:33:39;;;;;;;31.10;20.02;;;;;;;8.17;100.00;99020.22;10106423;28;20133;-73
2024/02/10 14:09:44;;;;;;;46.50;24.02;;;;;;;7.93;100.00;98988.34;10094342;28;20517;-73
2024/02/10 14:14:41;;;;;;;33.53;21.63;;;;;;;8.01;100.00;98987.44;10081841;28;20054;-74
2024/02/10 14:19:57;;;;;;;39.30;22.83;;;;;;;7.69;100.00;98987.25;10093648;28;20047;-75
2024/02/10 14:24:55;;;;;;;38.17;22.48;;;;;;;7.67;100.00;98972.41;10089030;28;20146;-74
2024/02/10 14:29:54;;;;;;;37.08;20.85;;;;;;;7.58;100.00;98977.94;10086023;28;20412;-76
2024/02/10 14:35:08;;;;;;;40.47;22.08;;;;;;;7.73;100.00;98984.66;10092623;28;20129;-73
2024/02/10 14:40:06;;;;;;;35.40;22.08;;;;;;;7.75;100.00;98988.63;10092437;28;20051;-72
2024/02/10 14:45:03;;;;;;;43.08;21.20;;;;;;;7.63;100.00;98998.69;10089540;28;20104;-72
2024/02/10 14:49:59;;;;;;;35.72;21.40;;;;;;;7.63;100.00;98994.03;10107577;28;20915;-74
2024/02/10 14:54:56;;;;;;;29.55;18.00;;;;;;;7.66;100.00;98998.81;10085964;28;20043;-74
2024/02/10 14:59:53;;;;;;;28.63;17.75;;;;;;;7.55;100.00;99005.84;10102467;28;20039;-72
2024/02/10 15:04:50;;;;;;;31.13;18.65;;;;;;;7.53;100.00;99010.81;10103559;28;20442;-72
2024/02/10 15:09:48;;;;;;;32.95;19.67;;;;;;;7.54;100.00;99012.38;10099269;28;20046;-72
2024/02/10 15:14:44;;;;;;;28.48;18.15;;;;;;;7.57;100.00;99006.28;10096527;28;20094;-74
2024/02/10 15:19:41;;;;;;;28.92;18.50;;;;;;;7.57;100.00;99000.84;10104340;28;20051;-73
2024/02/10 15:24:37;;;;;;;26.85;17.98;;;;;;;7.55;100.00;99008.56;10102583;28;20042;-72
2024/02/10 15:29:34;;;;;;;30.60;20.42;;;;;;;7.53;100.00;99021.69;10087345;28;20150;-73
2024/02/10 15:34:36;;;;;;;28.77;18.70;;;;;;;7.42;100.00;99034.94;10111078;28;20058;-73
2024/02/10 15:39:46;;;;;;;31.73;18.73;;;;;;;7.51;100.00;99034.81;10092434;28;20117;-72
2024/02/10 15:44:45;;;;;;;31.33;18.98;;;;;;;7.37;100.00;99030.50;10112618;28;20050;-73
2024/02/10 15:49:42;;;;;;;28.08;17.98;;;;;;;7.29;100.00;99049.66;10094365;28;20043;-75
2024/02/10 15:54:40;;;;;;;43.70;20.35;;;;;;;7.15;100.00;99029.00;10097342;28;20046;-74
2024/02/10 15:59:37;;;;;;;28.98;18.95;;;;;;;7.26;100.00;99051.09;10109596;28;20054;-74
2024/02/10 16:04:36;;;;;;;35.65;20.55;;;;;;;7.02;100.00;99049.09;10101860;28;20055;-74
2024/02/10 16:09:33;;;;;;;34.22;20.45;;;;;;;7.03;100.00;99056.16;10086025;28;20519;-73
2024/02/10 16:14:30;;;;;;;41.72;20.60;;;;;;;6.91;100.00;99046.00;10107165;28;20062;-71
2024/02/10 16:19:26;;;;;;;48.67;20.08;;;;;;;6.73;100.00;99050.81;10109098;28;20047;-72
2024/02/10 16:24:24;;;;;;;35.42;19.10;;;;;;;6.73;100.00;67994.34;10119022;28;20043;-71
2024/02/10 16:29:24;;;;;;;31.15;18.58;;;;;;;6.83;100.00;99054.25;10111935;28;20462;-71
2024/02/10 16:34:22;;;;;;;32.30;20.15;;;;;;;6.81;100.00;99062.72;10101682;28;20507;-72
2024/02/10 16:39:21;;;;;;;44.17;20.73;;;;;;;6.71;100.00;99069.34;10099352;28;20423;-73
2024/02/10 16:44:18;;;;;;;48.40;25.35;;;;;;;6.72;100.00;99065.50;10098775;28;20683;-72
2024/02/10 16:49:16;;;;;;;34.75;19.70;;;;;;;6.55;100.00;99070.28;10103008;28;20714;-72
2024/02/10 16:54:13;;;;;;;39.13;21.35;;;;;;;6.66;100.00;99082.31;10100755;28;20050;-72
2024/02/10 16:59:09;;;;;;;43.40;20.73;;;;;;;6.63;100.00;99066.69;10097592;28;20534;-72
2024/02/10 17:04:13;;;;;;;40.60;22.50;;;;;;;6.55;100.00;99070.28;10094347;28;20067;-72
2024/02/10 17:09:13;;;;;;;40.75;22.98;;;;;;;6.65;100.00;99064.44;10094771;28;20055;-71
2024/02/10 17:14:10;;;;;;;46.35;20.70;;;;;;;6.60;100.00;99053.78;10093633;28;20058;-73
2024/02/10 17:19:10;;;;;;;41.08;22.58;;;;;;;6.39;100.00;99059.22;10098511;28;20061;-73
2024/02/10 17:24:09;;;;;;;50.17;23.25;;;;;;;6.51;100.00;99060.06;10096115;28;20047;-72
2024/02/10 17:29:08;;;;;;;42.33;21.27;;;;;;;6.47;100.00;99048.28;10093547;28;20043;-72
2024/02/10 17:34:04;;;;;;;44.08;22.02;;;;;;;6.51;100.00;99054.66;10088574;28;20134;-72
2024/02/10 17:39:01;;;;;;;39.67;21.30;;;;;;;6.62;100.00;99059.69;10097912;28;20039;-70
2024/02/10 17:43:58;;;;;;;36.90;21.05;;;;;;;6.64;100.00;99062.88;10087505;28;20057;-74
2024/02/10 17:48:55;;;;;;;43.97;21.67;;;;;;;6.54;100.00;99074.91;10085162;28;20110;-72
2024/02/10 17:53:53;;;;;;;33.65;21.02;;;;;;;6.53;100.00;99068.69;10088043;28;20418;-72
2024/02/10 17:58:50;;;;;;;32.72;20.50;;;;;;;6.45;100.00;99074.19;10084514;28;20558;-74
2024/02/10 18:03:47;;;;;;;31.10;18.90;;;;;;;6.58;100.00;99085.91;10094792;28;20085;-72
2024/02/10 18:08:44;;;;;;;27.65;17.02;;;;;;;6.44;100.00;99086.97;10088248;28;20054;-72
2024/02/10 18:13:47;;;;;;;26.17;17.35;;;;;;;6.43;100.00;99090.81;10094865;28;20050;-72
2024/02/10 18:18:48;;;;;;;19.80;15.27;;;;;;;6.38;100.00;99099.13;10102256;28;20469;-73
2024/02/10 18:23:47;;;;;;;18.60;15.23;;;;;;;6.36;100.00;99101.41;10083942;28;20042;-72
2024/02/10 18:28:43;;;;;;;19.98;15.63;;;;;;;6.23;100.00;99107.84;10087181;28;20074;-71
2024/02/10 18:33:40;;;;;;;20.55;15.07;;;;;;;6.25;100.00;99116.47;10082739;28;20110;-73
2024/02/10 18:38:37;;;;;;;17.90;14.30;;;;;;;6.36;100.00;99130.44;10104039;28;20093;-74
2024/02/10 18:43:33;;;;;;;18.40;14.30;;;;;;;6.41;100.00;99122.94;10101647;28;20566;-73
2024/02/10 18:48:30;;;;;;;18.10;15.93;;;;;;;6.38;100.00;99125.50;10101351;28;20050;-72
2024/02/10 18:53:27;;;;;;;19.10;15.20;;;;;;;6.42;100.00;99127.22;10093562;28;20043;-73
2024/02/10 18:58:24;;;;;;;17.88;15.73;;;;;;;6.20;100.00;99131.03;10098090;28;20717;-73
2024/02/10 19:03:20;;;;;;;16.55;14.18;;;;;;;6.34;100.00;99141.66;10107729;28;20051;-73
2024/02/10 19:08:17;;;;;;;20.17;15.93;;;;;;;6.19;100.00;99151.13;10102391;28;20058;-72
2024/02/10 19:13:14;;;;;;;17.25;15.40;;;;;;;6.35;100.00;99139.72;10103633;28;20082;-71
2024/02/10 19:18:13;;;;;;;19.30;15.85;;;;;;;6.23;100.00;99140.44;10091475;28;20531;-73
2024/02/10 19:23:11;;;;;;;19.48;15.55;;;;;;;6.26;100.00;99134.34;10077780;28;20047;-74
2024/02/10 19:28:09;;;;;;;17.27;15.15;;;;;;;6.30;100.00;99148.84;10087743;28;20116;-73
2024/02/10 19:33:06;;;;;;;21.40;15.32;;;;;;;6.30;100.00;99157.00;10100991;28;20055;-73
2024/02/10 19:38:03;;;;;;;18.90;16.17;;;;;;;6.14;100.00;99150.53;10096911;28;20126;-72
2024/02/10 19:43:06;;;;;;;19.80;15.73;;;;;;;6.27;100.00;99154.94;10106421;28;20062;-73
2024/02/10 19:48:03;;;;;;;19.05;16.50;;;;;;;6.22;100.00;99160.53;10102692;28;20054;-72
2024/02/10 19:53:01;;;;;;;18.25;16.27;;;;;;;6.32;100.00;99165.59;10104058;28;20054;-72
2024/02/10 19:57:58;;;;;;;22.40;16.67;;;;;;;6.33;100.00;99178.03;10096839;28;20035;-72
2024/02/10 20:02:55;;;;;;;17.00;15.15;;;;;;;6.32;100.00;99160.97;10107991;28;20519;-72
2024/02/10 20:07:51;;;;;;;19.00;16.90;;;;;;;6.30;100.00;99170.56;10092500;28;20047;-72
2024/02/10 20:12:49;;;;;;;20.40;17.90;;;;;;;6.10;100.00;99175.63;10090453;28;20057;-72
2024/02/10 20:17:51;;;;;;;21.15;17.77;;;;;;;6.17;100.00;99177.78;10102839;28;20069;-72
2024/02/10 20:22:49;;;;;;;22.05;17.25;;;;;;;6.18;100.00;99171.25;10091302;28;20046;-72
2024/02/10 20:27:46;;;;;;;20.73;16.05;;;;;;;6.08;100.00;99161.56;10096753;28;20053;-73
2024/02/10 20:32:42;;;;;;;23.15;17.48;;;;;;;6.24;100.00;99171.88;10103229;28;20038;-72
2024/02/10 20:37:39;;;;;;;19.80;17.00;;;;;;;6.29;100.00;99177.13;10098463;28;20133;-74
2024/02/10 20:42:36;;;;;;;23.17;17.40;;;;;;;6.25;100.00;99170.75;10099674;28;20565;-72
2024/02/10 20:47:34;;;;;;;25.95;18.38;;;;;;;6.18;100.00;99170.47;10102302;28;20043;-72
2024/02/10 20:52:31;;;;;;;24.70;17.58;;;;;;;6.15;100.00;99165.69;10094805;28;20109;-74
2024/02/10 20:57:29;;;;;;;19.52;16.77;;;;;;;5.99;100.00;99163.53;10089132;28;20475;-72
2024/02/10 21:02:27;;;;;;;21.30;16.70;;;;;;;6.05;100.00;99151.34;10093884;28;20459;-72
2024/02/10 21:07:23;;;;;;;20.73;17.08;;;;;;;6.03;100.00;99158.22;10098767;28;20065;-71
2024/02/10 21:12:20;;;;;;;24.75;17.67;;;;;;;6.05;100.00;99169.56;10108909;28;20057;-75
2024/02/10 21:17:17;;;;;;;23.05;18.10;;;;;;;5.97;100.00;99165.75;10097725;28;20053;-74
2024/02/10 21:22:13;;;;;;;22.10;16.55;;;;;;;6.11;100.00;99177.19;10100652;28;20651;-73
2024/02/10 21:27:11;;;;;;;25.50;17.67;;;;;;;6.09;100.00;99184.84;10100746;28;20106;-73
2024/02/10 21:32:09;;;;;;;22.27;17.58;;;;;;;5.97;100.00;99187.47;10103898;28;20062;-74
2024/02/10 21:37:05;;;;;;;21.92;18.27;;;;;;;5.91;100.00;99183.28;10089090;28;20184;-73
2024/02/10 21:42:03;;;;;;;23.67;18.55;;;;;;;5.95;100.00;99176.13;10081449;28;20118;-74
2024/02/10 21:47:01;;;;;;;24.15;17.67;;;;;;;6.04;100.00;99157.91;10091547;28;20193;-74
2024/02/10 21:51:58;;;;;;;22.52;18.00;;;;;;;5.96;100.00;99157.94;10099315;28;20753;-73
2024/02/10 21:56:55;;;;;;;23.75;18.73;;;;;;;5.95;100.00;99172.63;10092887;28;20521;-73
2024/02/10 22:01:52;;;;;;;22.02;18.23;;;;;;;5.88;100.00;99156.81;10100045;28;20717;-73
2024/02/10 22:06:49;;;;;;;24.20;18.58;;;;;;;5.83;100.00;99159.72;10101387;28;20034;-72
2024/02/10 22:11:46;;;;;;;26.08;18.15;;;;;;;5.76;100.00;99154.00;10109260;28;20126;-73
2024/02/10 22:16:48;;;;;;;24.92;19.55;;;;;;;5.75;100.00;99147.75;10089417;28;20051;-75
2024/02/10 22:21:44;;;;;;;26.25;18.95;;;;;;;5.72;100.00;99147.63;10102488;28;20689;-71
2024/02/10 22:26:42;;;;;;;25.23;18.45;;;;;;;5.80;100.00;99154.91;10089123;28;20046;-75
2024/02/10 22:31:39;;;;;;;25.25;19.92;;;;;;;5.87;100.00;99150.59;10096385;28;20050;-72
2024/02/10 22:36:39;;;;;;;24.00;18.65;;;;;;;5.74;100.00;99156.22;10102084;28;20059;-71
2024/02/10 22:41:35;;;;;;;24.83;18.60;;;;;;;5.77;100.00;99156.38;10092872;28;20059;-73
2024/02/10 22:46:32;;;;;;;27.75;20.05;;;;;;;5.87;100.00;99149.78;10099120;28;20051;-71
2024/02/10 22:51:30;;;;;;;28.15;20.08;;;;;;;5.79;100.00;99161.47;10088665;28;20133;-74
2024/02/10 22:56:27;;;;;;;22.33;16.88;;;;;;;5.66;100.00;99145.09;10094718;28;20046;-73
2024/02/10 23:01:26;;;;;;;27.58;20.88;;;;;;;5.70;100.00;99162.28;10092043;28;20039;-72
2024/02/10 23:06:23;;;;;;;27.48;20.05;;;;;;;5.55;100.00;99165.53;10106340;28;20046;-71